Akiachak, AK (99551)

12:48 AM AKDT on July 28, 2014 (GMT -0800)
Kwethluk AP, Kwethluk, AK (PFKW) Elev 26 ft | 60.79 °N, 161.44 °W | Change Station

Current weather conditions updated 52 minutes ago

Overcast
Overcast
56 °F
Feels Like 56 °F
N
7
Wind Variable Wind from WSW

Today is forecast to be nearly the same temperature as yesterday.

Today
High -- | Low -- °F
--% Chance of Precip.
Yesterday
High -- | Low -- °F
Precip. -- in
6:11 AM 11:31 PM
New Moon, 2% visible
Pressure 30.08 in
Visibility 10.0 miles
Clouds Overcast 1900 ft
Dew Point 50 °F
Humidity 80%
Rainfall 0.00 in
Snow Depth Not available.
UV 0 out of 12
Pollen Not available.
Air Quality Not available.
Flu Activity Not available.
METAR PFKW 280756Z AUTO 25006KT 10SM OVC019 13/10 A3007 RMK AO2 SLP184 T01330100 $

More Conditions Fewer Conditions

Pressure 30.08 in
Visibility 10.0 miles
Clouds Overcast 1900 ft
Dew Point 50 °F
Humidity 80%
Rainfall 0.00 in
Snow Depth Not available.
UV 0 out of 12
Pollen Not available.
Air Quality Not available.
Flu Activity Not available.
METAR PFKW 280756Z AUTO 25006KT 10SM OVC019 13/10 A3007 RMK AO2 SLP184 T01330100 $

More Conditions Fewer Conditions

10-Day Weather Forecast

Almanac

Astronomy

Jul. 28, 2014 Rise Set
Actual Time 6:11 AM AKDT 11:31 PM AKDT
Civil Twilight 5:02 AM AKDT 12:38 AM AKDT
Nautical Twilight 3:24 AM AKDT 2:19 AM AKDT
Astronomical Twilight Sun does not rise Sun does not rise
Moon 8:55 AM AKDT 11:19 PM AKDT
Length of Visible Light 19h 36m
Length of Day
17h 20m
Tomorrow will be 4m 59s shorter.
New Moon, 2% of the Moon is Illuminated
Today
New Moon
Aug 3
First Quarter
Aug 10
Full
Aug 17
Last Quarter
Aug 25
New

Today's Extremes

State Highs State Lows

Community

WunderPhotos

Upload Photos

1,738,295 photos uploaded!

Nearby

Snow Depth

Station Depth Elevation
Rocky Point 2 in 500 ft
Pargon Creek 0 in 300 ft
Mcneil Canyon 1 in 1320 ft
Port Graham 0 in 300 ft
MF Bradley River 200 in 2300 ft

Earthquake Activity

City Distance Mag. Time & Date
No recent earthquake activity has been reported nearby.
Minimum magnitude displayed is 2.5.

Coastal Water Temperatures

Place Temperature
No Stations Reporting

Nearby Weather Stations

There are no personal weather stations in this area.